createdAt,value
2022-10-01T00:02:09.224Z,7.50
2022-10-01T00:04:37.779Z,7.30
2022-10-01T00:07:09.594Z,8.88
2022-10-01T00:09:39.416Z,9.13
2022-10-01T00:12:10.254Z,9.48
2022-10-01T00:14:39.500Z,7.57
2022-10-01T00:17:07.322Z,8.57
2022-10-01T00:19:35.110Z,10.38
2022-10-01T00:22:03.187Z,10.00
2022-10-01T00:24:31.126Z,9.32
2022-10-01T00:27:00.651Z,9.57
2022-10-01T00:29:28.460Z,10.00
2022-10-01T00:31:57.782Z,9.90
2022-10-01T00:34:27.000Z,8.75
2022-10-01T00:36:54.744Z,8.35
2022-10-01T00:41:51.145Z,7.57
2022-10-01T00:44:32.140Z,8.63
2022-10-01T00:47:02.916Z,8.60
2022-10-01T00:49:31.991Z,7.93
2022-10-01T00:52:02.522Z,8.18
2022-10-01T00:54:33.307Z,8.05
2022-10-01T00:57:02.414Z,8.80
2022-10-01T00:59:32.223Z,8.20
2022-10-01T01:02:00.959Z,8.35
2022-10-01T01:04:30.083Z,7.57
2022-10-01T01:06:59.176Z,8.13
2022-10-01T01:09:30.164Z,8.32
2022-10-01T01:12:01.495Z,8.63
2022-10-01T01:14:34.068Z,7.85
2022-10-01T01:17:08.762Z,8.32
2022-10-01T01:19:44.654Z,8.23
2022-10-01T01:22:13.512Z,8.32
2022-10-01T01:24:46.624Z,8.85
2022-10-01T01:27:25.289Z,8.15
2022-10-01T01:29:56.499Z,7.78
2022-10-01T01:32:26.537Z,7.72
2022-10-01T01:34:56.459Z,20.60
2022-10-01T01:37:27.217Z,12.45
2022-10-01T01:39:56.510Z,9.35
2022-10-01T01:42:27.184Z,8.75
2022-10-01T01:44:58.418Z,9.35
2022-10-01T01:47:32.915Z,10.10
2022-10-01T01:50:03.641Z,9.57
2022-10-01T01:52:31.518Z,9.07
2022-10-01T01:54:59.289Z,9.55
2022-10-01T01:57:27.542Z,10.65
2022-10-01T01:59:56.769Z,10.68
2022-10-01T02:02:27.206Z,9.98
2022-10-01T02:04:56.983Z,9.18
2022-10-01T02:07:43.026Z,9.95
2022-10-01T02:10:16.531Z,10.38
2022-10-01T02:12:50.099Z,10.73
2022-10-01T02:15:23.713Z,10.25
2022-10-01T02:17:54.528Z,11.30
2022-10-01T02:20:24.429Z,10.60
2022-10-01T02:22:55.002Z,8.98
2022-10-01T02:25:27.080Z,10.10
2022-10-01T02:27:59.292Z,9.63
2022-10-01T02:30:28.926Z,9.25
2022-10-01T02:32:59.445Z,8.43
2022-10-01T02:35:30.855Z,8.77
2022-10-01T02:38:00.294Z,8.30
2022-10-01T02:40:29.462Z,8.02
2022-10-01T02:43:00.057Z,9.18
2022-10-01T02:45:32.534Z,7.80
2022-10-01T02:48:03.260Z,7.82
2022-10-01T02:50:32.610Z,9.15
2022-10-01T02:53:03.974Z,8.88
2022-10-01T02:55:34.232Z,7.53
2022-10-01T02:58:01.371Z,9.05
2022-10-01T03:00:30.615Z,7.50
2022-10-01T03:02:58.387Z,8.68
2022-10-01T03:05:26.324Z,9.00
2022-10-01T03:07:54.177Z,8.18
2022-10-01T03:10:22.144Z,7.95
2022-10-01T03:12:51.006Z,8.18
2022-10-01T03:15:19.616Z,9.38
2022-10-01T03:17:51.794Z,9.35
2022-10-01T03:20:19.780Z,9.20
2022-10-01T03:22:47.648Z,10.80
2022-10-01T03:25:16.271Z,8.77
2022-10-01T03:27:44.310Z,8.30
2022-10-01T03:30:12.566Z,9.90
2022-10-01T03:32:40.336Z,11.15
2022-10-01T03:35:10.926Z,9.63
2022-10-01T03:37:38.768Z,9.23
2022-10-01T03:40:07.902Z,9.48
2022-10-01T03:42:35.602Z,8.63
2022-10-01T03:47:30.888Z,8.43
2022-10-01T03:52:27.567Z,8.13
2022-10-01T03:54:55.424Z,8.98
2022-10-01T03:57:23.457Z,9.57
2022-10-01T03:59:51.220Z,9.45
2022-10-01T04:02:19.958Z,8.40
2022-10-01T04:04:47.984Z,11.05
2022-10-01T04:07:15.870Z,9.70
2022-10-01T04:09:46.079Z,9.45
2022-10-01T04:12:13.802Z,9.82
2022-10-01T04:17:09.069Z,9.32
2022-10-01T04:19:36.818Z,9.27
2022-10-01T04:24:32.120Z,8.98
2022-10-01T04:27:01.812Z,8.88
2022-10-01T04:29:29.581Z,9.25
2022-10-01T04:31:58.244Z,8.13
2022-10-01T04:34:46.201Z,7.70
2022-10-01T04:37:14.570Z,8.23
2022-10-01T04:39:42.299Z,8.20
2022-10-01T04:42:13.754Z,8.18
2022-10-01T04:44:41.514Z,9.45
2022-10-01T04:47:10.007Z,8.40
2022-10-01T04:49:37.819Z,8.43
2022-10-01T04:52:05.736Z,8.85
2022-10-01T04:54:33.632Z,8.52
2022-10-01T04:57:01.358Z,8.32
2022-10-01T05:01:58.058Z,8.68
2022-10-01T05:04:27.273Z,8.90
2022-10-01T05:06:55.089Z,8.45
2022-10-01T05:09:23.415Z,8.18
2022-10-01T05:11:52.149Z,8.77
2022-10-01T05:14:21.366Z,8.80
2022-10-01T05:16:49.219Z,8.65
2022-10-01T05:19:18.823Z,9.32
2022-10-01T05:21:46.650Z,9.23
2022-10-01T05:24:16.291Z,10.55
2022-10-01T05:26:44.013Z,9.60
2022-10-01T05:29:14.245Z,10.60
2022-10-01T05:31:44.520Z,9.38
2022-10-01T05:34:12.549Z,10.88
2022-10-01T05:36:41.889Z,12.50
2022-10-01T05:39:09.910Z,11.43
2022-10-01T05:41:37.778Z,9.88
2022-10-01T05:44:06.179Z,11.00
2022-10-01T05:46:34.028Z,11.38
2022-10-01T05:49:01.757Z,11.00
2022-10-01T05:51:30.024Z,10.88
2022-10-01T05:54:01.231Z,9.77
2022-10-01T05:56:29.034Z,9.32
2022-10-01T05:58:56.790Z,10.48
2022-10-01T06:01:24.601Z,9.40
2022-10-01T06:03:52.509Z,9.00
2022-10-01T06:06:21.989Z,9.20
2022-10-01T06:08:49.845Z,9.18
2022-10-01T06:11:19.625Z,8.65
2022-10-01T06:13:47.410Z,9.25
2022-10-01T06:16:15.675Z,9.32
2022-10-01T06:18:44.002Z,10.75
2022-10-01T06:21:11.746Z,9.68
2022-10-01T06:23:39.819Z,10.13
2022-10-01T06:26:08.813Z,9.07
2022-10-01T06:28:38.016Z,10.05
2022-10-01T06:31:05.868Z,10.13
2022-10-01T06:33:33.571Z,12.90
2022-10-01T06:36:01.406Z,13.43
2022-10-01T06:38:31.163Z,11.13
2022-10-01T06:40:59.803Z,13.10
2022-10-01T06:43:29.124Z,9.98
2022-10-01T06:45:58.367Z,15.63
2022-10-01T06:48:26.428Z,10.68
2022-10-01T06:50:56.513Z,9.77
2022-10-01T06:53:24.404Z,11.32
2022-10-01T06:55:52.145Z,10.48
2022-10-01T06:58:21.323Z,9.45
2022-10-01T07:00:49.607Z,10.02
2022-10-01T07:03:20.008Z,10.38
2022-10-01T07:05:48.264Z,10.27
2022-10-01T07:08:16.236Z,9.85
2022-10-01T07:10:44.366Z,10.38
2022-10-01T07:13:13.243Z,9.82
2022-10-01T07:15:41.162Z,9.98
2022-10-01T07:18:10.308Z,9.90
2022-10-01T07:20:40.778Z,9.23
2022-10-01T07:23:10.444Z,10.02
2022-10-01T07:25:38.738Z,9.68
2022-10-01T07:28:07.533Z,9.82
2022-10-01T07:30:35.419Z,9.10
2022-10-01T07:33:03.272Z,9.95
2022-10-01T07:35:38.557Z,9.05
2022-10-01T07:38:08.228Z,10.27
2022-10-01T07:40:36.082Z,18.40
2022-10-01T07:43:03.886Z,15.52
2022-10-01T07:45:31.648Z,8.50
2022-10-01T07:48:02.242Z,8.55
2022-10-01T07:50:30.849Z,11.70
2022-10-01T07:52:59.462Z,11.10
2022-10-01T07:55:30.711Z,10.10
2022-10-01T07:58:00.076Z,8.98
2022-10-01T08:00:28.356Z,8.25
2022-10-01T08:02:57.038Z,9.30
2022-10-01T08:05:25.847Z,8.82
2022-10-01T08:07:54.114Z,8.40
2022-10-01T08:10:23.553Z,9.70
2022-10-01T08:12:52.981Z,9.63
2022-10-01T08:15:20.963Z,8.25
2022-10-01T08:17:48.829Z,8.57
2022-10-01T08:20:16.935Z,8.82
2022-10-01T08:22:44.879Z,10.25
2022-10-01T08:25:12.637Z,11.38
2022-10-01T08:27:43.126Z,11.02
2022-10-01T08:30:12.832Z,12.98
2022-10-01T08:32:40.603Z,13.32
2022-10-01T08:35:08.872Z,12.55
2022-10-01T08:37:36.690Z,14.38
2022-10-01T08:40:05.079Z,12.25
2022-10-01T08:42:41.073Z,11.95
2022-10-01T08:45:14.160Z,19.80
2022-10-01T08:47:43.435Z,14.20
2022-10-01T08:50:15.508Z,12.43
2022-10-01T08:52:47.053Z,13.23
2022-10-01T08:55:22.981Z,11.68
2022-10-01T08:57:53.101Z,12.60
2022-10-01T09:00:22.781Z,12.18
2022-10-01T09:02:52.988Z,13.93
2022-10-01T09:05:24.873Z,13.65
2022-10-01T09:08:03.571Z,13.15
2022-10-01T09:10:40.519Z,13.35
2022-10-01T09:13:26.091Z,14.55
2022-10-01T09:15:59.210Z,14.68
2022-10-01T09:18:31.056Z,14.10
2022-10-01T09:20:59.756Z,13.88
2022-10-01T09:23:28.797Z,13.43
2022-10-01T09:25:57.253Z,13.45
2022-10-01T09:28:28.693Z,14.60
2022-10-01T09:31:00.372Z,13.82
2022-10-01T09:33:32.124Z,13.70
2022-10-01T09:36:03.634Z,13.25
2022-10-01T09:38:35.405Z,14.18
2022-10-01T09:41:04.111Z,13.75
2022-10-01T09:43:32.976Z,13.65
2022-10-01T09:46:03.741Z,12.50
2022-10-01T09:48:34.111Z,15.43
2022-10-01T09:51:04.948Z,14.65
2022-10-01T09:53:35.935Z,14.85
2022-10-01T09:56:06.430Z,15.23
2022-10-01T09:58:41.096Z,14.02
2022-10-01T10:01:18.638Z,13.07
2022-10-01T10:03:54.761Z,11.55
2022-10-01T10:06:24.175Z,13.00
2022-10-01T10:08:52.886Z,22.17
2022-10-01T10:11:22.480Z,13.30
2022-10-01T10:14:40.451Z,11.40
2022-10-01T10:17:15.896Z,11.90
2022-10-01T10:19:48.819Z,11.45
2022-10-01T10:22:25.070Z,11.63
2022-10-01T10:24:53.684Z,12.45
2022-10-01T10:27:27.901Z,12.93
2022-10-01T10:30:06.531Z,13.18
2022-10-01T10:32:38.351Z,13.75
2022-10-01T10:35:10.239Z,12.70
2022-10-01T10:37:39.052Z,13.07
2022-10-01T10:40:08.590Z,14.43
2022-10-01T10:42:38.972Z,14.52
2022-10-01T10:45:16.499Z,13.60
2022-10-01T10:47:47.384Z,12.63
2022-10-01T10:50:25.030Z,11.98
2022-10-01T10:52:52.791Z,12.75
2022-10-01T10:55:22.279Z,12.35
2022-10-01T10:57:54.422Z,13.07
2022-10-01T11:00:25.722Z,11.98
2022-10-01T11:02:56.944Z,12.77
2022-10-01T11:05:26.142Z,13.13
2022-10-01T11:07:56.474Z,12.55
2022-10-01T11:10:35.454Z,17.13
2022-10-01T11:13:20.854Z,13.55
2022-10-01T11:15:58.031Z,13.40
2022-10-01T11:18:43.702Z,11.23
2022-10-01T11:21:22.038Z,15.05
2022-10-01T11:23:55.953Z,11.25
2022-10-01T11:26:27.084Z,11.20
2022-10-01T11:29:04.408Z,10.23
2022-10-01T11:31:38.190Z,9.13
2022-10-01T11:34:16.103Z,9.98
2022-10-01T11:36:55.258Z,9.30
2022-10-01T11:39:24.486Z,9.73
2022-10-01T11:41:54.126Z,8.95
2022-10-01T11:44:25.659Z,19.20
2022-10-01T11:46:56.152Z,10.90
2022-10-01T11:49:43.456Z,8.13
2022-10-01T11:52:16.036Z,7.10
2022-10-01T11:54:56.238Z,7.35
2022-10-01T11:57:41.872Z,7.72
2022-10-01T12:00:11.199Z,8.18
2022-10-01T12:02:46.601Z,6.40
2022-10-01T12:05:17.195Z,7.03
2022-10-01T12:07:50.870Z,6.60
2022-10-01T12:10:25.866Z,5.68
2022-10-01T12:12:56.866Z,6.38
2022-10-01T12:15:29.155Z,5.57
2022-10-01T12:18:00.173Z,4.38
2022-10-01T12:20:31.239Z,4.65
2022-10-01T12:23:01.919Z,4.18
2022-10-01T12:25:46.839Z,5.20
2022-10-01T12:28:17.625Z,4.75
2022-10-01T12:30:47.964Z,5.20
2022-10-01T12:33:29.692Z,10.95
2022-10-01T12:36:00.393Z,7.47
2022-10-01T12:38:38.734Z,4.80
2022-10-01T12:41:15.122Z,4.25
2022-10-01T12:43:58.952Z,5.00
2022-10-01T12:46:30.963Z,4.90
2022-10-01T12:49:05.233Z,4.28
2022-10-01T12:51:38.315Z,4.53
2022-10-01T12:54:14.315Z,4.03
2022-10-01T12:56:45.913Z,4.07
2022-10-01T12:59:35.671Z,3.70
2022-10-01T13:02:22.757Z,3.70
2022-10-01T13:04:59.922Z,3.63
2022-10-01T13:07:37.109Z,3.25
2022-10-01T13:10:14.576Z,4.25
2022-10-01T13:12:50.158Z,3.45
2022-10-01T13:15:20.894Z,2.78
2022-10-01T13:17:50.976Z,3.17
2022-10-01T13:20:22.241Z,3.00
2022-10-01T13:22:52.063Z,2.80
2022-10-01T13:25:29.410Z,2.90
2022-10-01T13:28:02.228Z,2.90
2022-10-01T13:30:34.794Z,2.50
2022-10-01T13:33:02.612Z,2.70
2022-10-01T13:35:36.139Z,7.75
2022-10-01T13:38:14.878Z,2.42
2022-10-01T13:40:44.696Z,2.97
2022-10-01T13:43:16.941Z,2.10
2022-10-01T13:45:46.251Z,2.35
2022-10-01T13:48:16.045Z,2.30
2022-10-01T13:50:55.321Z,2.67
2022-10-01T13:53:24.638Z,2.72
2022-10-01T13:55:54.537Z,2.70
2022-10-01T13:58:24.395Z,5.28
2022-10-01T14:00:54.381Z,3.10
2022-10-01T14:03:29.691Z,3.17
2022-10-01T14:05:58.790Z,7.05
2022-10-01T14:08:28.385Z,3.97
2022-10-01T14:11:16.178Z,4.05
2022-10-01T14:14:04.347Z,4.10
2022-10-01T14:16:36.827Z,3.80
2022-10-01T14:19:05.347Z,4.57
2022-10-01T14:21:40.241Z,4.18
2022-10-01T14:24:12.645Z,3.78
2022-10-01T14:26:47.270Z,3.97
2022-10-01T14:29:23.306Z,3.78
2022-10-01T14:31:58.342Z,4.13
2022-10-01T14:34:32.413Z,4.53
2022-10-01T14:37:00.387Z,6.13
2022-10-01T14:39:29.033Z,6.57
2022-10-01T14:41:58.951Z,7.05
2022-10-01T14:44:27.985Z,6.75
2022-10-01T14:46:56.362Z,7.22
2022-10-01T14:49:27.887Z,7.05
2022-10-01T14:52:01.004Z,6.97
2022-10-01T14:54:30.005Z,6.43
2022-10-01T14:56:59.543Z,7.32
2022-10-01T14:59:31.286Z,10.13
2022-10-01T15:02:00.452Z,7.38
2022-10-01T15:04:28.441Z,8.18
2022-10-01T15:07:03.827Z,6.55
2022-10-01T15:09:34.933Z,6.93
2022-10-01T15:12:06.336Z,7.80
2022-10-01T15:14:35.059Z,6.82
2022-10-01T15:17:04.108Z,8.45
2022-10-01T15:19:32.804Z,10.07
2022-10-01T15:22:01.774Z,8.88
2022-10-01T15:24:34.967Z,8.85
2022-10-01T15:27:04.243Z,9.23
2022-10-01T15:29:32.553Z,9.50
2022-10-01T15:32:03.021Z,9.18
2022-10-01T15:34:31.318Z,9.73
2022-10-01T15:37:00.188Z,8.75
2022-10-01T15:39:32.774Z,8.75
2022-10-01T15:42:02.407Z,8.60
2022-10-01T15:44:49.174Z,8.45
2022-10-01T15:47:27.146Z,8.38
2022-10-01T15:50:06.493Z,8.68
2022-10-01T15:52:53.084Z,7.93
2022-10-01T15:55:22.883Z,7.72
2022-10-01T15:57:51.878Z,7.82
2022-10-01T16:00:25.608Z,7.32
2022-10-01T16:02:53.563Z,6.93
2022-10-01T16:05:22.726Z,6.65
2022-10-01T16:07:58.277Z,5.80
2022-10-01T16:10:32.080Z,6.82
2022-10-01T16:13:00.924Z,6.22
2022-10-01T16:15:30.891Z,4.90
2022-10-01T16:17:59.938Z,5.00
2022-10-01T16:20:35.634Z,5.00
2022-10-01T16:23:26.929Z,4.57
2022-10-01T16:25:54.679Z,4.70
2022-10-01T16:28:27.118Z,3.70
2022-10-01T16:30:56.401Z,3.88
2022-10-01T16:33:24.275Z,3.80
2022-10-01T16:35:52.006Z,2.80
2022-10-01T16:38:19.748Z,2.75
2022-10-01T16:40:48.395Z,2.78
2022-10-01T16:43:17.532Z,2.92
2022-10-01T16:45:45.332Z,2.58
2022-10-01T16:48:16.017Z,2.80
2022-10-01T16:50:44.304Z,9.55
2022-10-01T16:53:12.720Z,15.30
2022-10-01T16:55:40.626Z,4.75
2022-10-01T16:58:08.937Z,12.25
2022-10-01T17:00:37.386Z,30.25
2022-10-01T17:03:06.224Z,25.33
2022-10-01T17:05:37.086Z,4.20
2022-10-01T17:08:11.424Z,3.80
2022-10-01T17:10:41.254Z,4.00
2022-10-01T17:13:10.359Z,2.67
2022-10-01T17:15:38.238Z,2.47
2022-10-01T17:18:08.388Z,2.10
2022-10-01T17:20:39.274Z,4.07
2022-10-01T17:23:07.325Z,3.20
2022-10-01T17:25:37.081Z,3.28
2022-10-01T17:28:06.293Z,2.60
2022-10-01T17:30:34.193Z,2.22
2022-10-01T17:33:02.514Z,1.92
2022-10-01T17:35:30.657Z,2.22
2022-10-01T17:37:59.926Z,2.00
2022-10-01T17:40:27.788Z,2.17
2022-10-01T17:42:55.503Z,2.80
2022-10-01T17:45:23.224Z,1.90
2022-10-01T17:47:51.513Z,1.65
2022-10-01T17:50:19.738Z,2.22
2022-10-01T17:52:48.249Z,2.20
2022-10-01T17:55:19.845Z,1.83
2022-10-01T17:57:47.580Z,1.50
2022-10-01T18:00:15.400Z,1.88
2022-10-01T18:02:43.667Z,1.70
2022-10-01T18:05:12.605Z,1.67
2022-10-01T18:07:40.717Z,1.88
2022-10-01T18:10:10.224Z,2.75
2022-10-01T18:12:39.673Z,2.80
2022-10-01T18:15:07.970Z,2.78
2022-10-01T18:17:36.652Z,3.08
2022-10-01T18:20:05.159Z,2.70
2022-10-01T18:22:33.198Z,2.97
2022-10-01T18:25:00.922Z,3.45
2022-10-01T18:27:28.709Z,3.08
2022-10-01T18:29:57.874Z,3.40
2022-10-01T18:32:26.860Z,3.90
2022-10-01T18:34:55.809Z,4.40
2022-10-01T18:37:25.917Z,4.50
2022-10-01T18:39:56.029Z,4.60
2022-10-01T18:42:27.389Z,4.55
2022-10-01T18:44:57.450Z,4.70
2022-10-01T18:47:34.774Z,4.07
2022-10-01T18:50:15.180Z,3.63
2022-10-01T18:52:51.030Z,3.75
2022-10-01T18:55:34.415Z,4.82
2022-10-01T18:58:09.781Z,4.40
2022-10-01T19:00:41.769Z,5.72
2022-10-01T19:03:18.614Z,6.18
2022-10-01T19:05:59.691Z,6.60
2022-10-01T19:08:41.299Z,7.07
2022-10-01T19:11:18.022Z,6.70
2022-10-01T19:13:49.918Z,6.72
2022-10-01T19:16:23.969Z,7.80
2022-10-01T19:19:01.676Z,9.30
2022-10-01T19:21:34.286Z,11.07
2022-10-01T19:24:09.574Z,10.23
2022-10-01T19:26:40.856Z,8.43
2022-10-01T19:29:14.775Z,9.27
2022-10-01T19:31:46.281Z,7.90
2022-10-01T19:34:17.602Z,7.78
2022-10-01T19:36:49.797Z,8.88
2022-10-01T19:39:20.988Z,8.55
2022-10-01T19:41:50.253Z,8.45
2022-10-01T19:44:20.808Z,9.27
2022-10-01T19:46:50.528Z,8.00
2022-10-01T19:49:21.905Z,7.82
2022-10-01T19:51:56.689Z,8.75
2022-10-01T19:54:25.908Z,9.63
2022-10-01T19:56:54.761Z,8.77
2022-10-01T19:59:23.000Z,9.48
2022-10-01T20:01:53.601Z,9.98
2022-10-01T20:04:27.823Z,14.00
2022-10-01T20:07:01.394Z,9.82
2022-10-01T20:09:30.456Z,6.32
2022-10-01T20:12:02.113Z,5.80
2022-10-01T20:14:53.599Z,5.22
2022-10-01T20:17:23.166Z,4.40
2022-10-01T20:19:54.634Z,3.70
2022-10-01T20:22:28.576Z,3.45
2022-10-01T20:24:59.462Z,3.42
2022-10-01T20:27:31.317Z,3.33
2022-10-01T20:30:04.379Z,3.22
2022-10-01T20:32:35.221Z,2.70
2022-10-01T20:35:11.102Z,3.13
2022-10-01T20:37:53.886Z,2.97
2022-10-01T20:40:26.201Z,2.90
2022-10-01T20:42:57.224Z,2.80
2022-10-01T20:45:26.833Z,3.30
2022-10-01T20:47:58.046Z,2.47
2022-10-01T20:50:29.646Z,2.70
2022-10-01T20:53:04.872Z,2.50
2022-10-01T20:55:40.819Z,2.63
2022-10-01T20:58:13.147Z,2.92
2022-10-01T21:00:42.638Z,3.63
2022-10-01T21:03:13.496Z,3.15
2022-10-01T21:05:42.828Z,2.58
2022-10-01T21:08:14.233Z,2.88
2022-10-01T21:10:47.482Z,2.85
2022-10-01T21:13:18.277Z,2.55
2022-10-01T21:15:52.375Z,4.97
2022-10-01T21:18:23.841Z,3.00
2022-10-01T21:20:55.614Z,2.10
2022-10-01T21:23:31.971Z,2.45
2022-10-01T21:26:05.996Z,2.55
2022-10-01T21:28:41.033Z,2.30
2022-10-01T21:31:17.979Z,2.60
2022-10-01T21:33:47.781Z,2.22
2022-10-01T21:36:19.444Z,2.22
2022-10-01T21:38:50.669Z,2.15
2022-10-01T21:41:36.557Z,2.80
2022-10-01T21:44:19.288Z,2.25
2022-10-01T21:46:54.459Z,2.78
2022-10-01T21:49:28.299Z,2.60
2022-10-01T21:52:00.162Z,2.38
2022-10-01T21:54:39.608Z,1.98
2022-10-01T21:57:19.066Z,2.30
2022-10-01T21:59:53.311Z,2.15
2022-10-01T22:02:29.801Z,2.03
2022-10-01T22:05:00.435Z,2.50
2022-10-01T22:07:32.811Z,2.05
2022-10-01T22:10:04.880Z,2.55
2022-10-01T22:12:34.515Z,2.35
2022-10-01T22:15:02.602Z,2.70
2022-10-01T22:17:32.953Z,2.58
2022-10-01T22:20:03.105Z,2.47
2022-10-01T22:22:31.778Z,1.88
2022-10-01T22:25:00.309Z,1.77
2022-10-01T22:27:32.155Z,2.00
2022-10-01T22:30:01.471Z,2.00
2022-10-01T22:32:31.936Z,2.20
2022-10-01T22:35:04.307Z,1.83
2022-10-01T22:37:34.884Z,1.88
2022-10-01T22:40:05.818Z,1.58
2022-10-01T22:42:35.541Z,1.98
2022-10-01T22:45:07.750Z,1.50
2022-10-01T22:47:45.935Z,1.52
2022-10-01T22:52:47.208Z,2.40
2022-10-01T22:55:22.423Z,1.50
2022-10-01T22:58:04.872Z,1.40
2022-10-01T23:00:34.041Z,1.85
2022-10-01T23:03:07.947Z,1.63
2022-10-01T23:05:41.008Z,1.52
2022-10-01T23:08:13.776Z,1.60
2022-10-01T23:10:45.468Z,1.25
2022-10-01T23:13:20.480Z,1.60
2022-10-01T23:15:49.373Z,1.33
2022-10-01T23:18:23.668Z,1.45
2022-10-01T23:20:57.993Z,1.20
2022-10-01T23:23:30.778Z,0.98
2022-10-01T23:26:12.500Z,1.25
2022-10-01T23:28:45.372Z,0.90
2022-10-01T23:31:17.031Z,1.20
2022-10-01T23:33:59.793Z,1.13
2022-10-01T23:36:34.060Z,1.40
2022-10-01T23:39:10.130Z,1.02
2022-10-01T23:41:40.141Z,1.42
2022-10-01T23:44:12.801Z,1.25
2022-10-01T23:46:42.263Z,1.48
2022-10-01T23:49:13.242Z,1.35
2022-10-01T23:51:44.386Z,1.20
2022-10-01T23:54:15.792Z,1.30
2022-10-01T23:56:49.628Z,1.98
2022-10-01T23:59:21.375Z,0.93
